METAR AND TAF INFORMATION
METAR FOR LTAT
ADDS - METARS form results

(0937 UTC 21 January 2019)
Data provider http://aviationweather.gov/metar/data/
 
METAR text: LTAT 210920Z 36003KT 280V080 9999 SCT035 BKN090 01/M04 Q1025 NOSIG RMK RWY03 02004KT 320V100
Conditions at: LTAT (MALATYA/ERHAC (A, TR) observed 0920 UTC 21 January 2019
Temperature: 1.0°C (34°F)
Dewpoint: -4.0°C (25°F) [RH = 69%]
Pressure (altimeter): 30.27 inches Hg (1025.0 mb)
Winds: from the N (360 degrees) at 3 MPH (3 knots; 1.5 m/s)
Visibility: 6 or more miles (10+ km)
Ceiling: 9000 feet AGL
Clouds: scattered clouds at 3500 feet AGL
broken clouds at 9000 feet AGL
Weather: no significant weather observed at this time

METAR text: LTAT 210850Z 05004KT 010V090 9999 FEW020 BKN035 OVC090 00/M05 Q1026 NOSIG RMK RWY03 06004KT 020V120
Conditions at: LTAT (MALATYA/ERHAC (A, TR) observed 0850 UTC 21 January 2019
Temperature: 0.0°C (32°F)
Dewpoint: -5.0°C (23°F) [RH = 69%]
Pressure (altimeter): 30.30 inches Hg (1026.0 mb)
Winds: from the NE (50 degrees) at 5 MPH (4 knots; 2.1 m/s)
Visibility: 6 or more miles (10+ km)
Ceiling: 3500 feet AGL
Clouds: few clouds at 2000 feet AGL
broken clouds at 3500 feet AGL
overcast cloud deck at 9000 feet AGL
Weather: no significant weather observed at this time

Forecast for: LTAT (MALATYA/ERHAC (A, TR)
Text: TAF LTAT 210440Z 2106/2206 VRB02KT 9999 SCT040 BKN100
Forecast period: 0600 UTC 21 January 2019 to 0600 UTC 22 January 2019
Forecast type: FROM: standard forecast or significant change
Winds: variable direction winds at 2 MPH (2 knots; 1.0 m/s)
Visibility: 6 or more miles 10+ km)
Ceiling: 10000 feet AGL
Clouds: scattered clouds at 4000 feet AGL
broken clouds at 10000 feet AGL
Weather: no significant weather forecast for this period
Text: PROB30
Forecast period: 1100 to 1500 UTC 21 January 2019
Forecast type: TEMPORARY: The following changes expected for less than half the time period
Visibility: missing
Ceiling: 3500 feet AGL
Clouds: broken clouds at 3500 feet AGL
broken clouds at 9000 feet AGL
Weather: -RA  (light rain)

 AIRPORT MAP

 RUNWAY INFORMATION
Runway 03 Runway length 10990 ft Runway width 148 ft
Runway elevation 2828 ft Runway displaced threshold 0 ft Runway heading 31
Runway 21 Runway length 10990 ft Runway width 148 ft
Runway elevation 2757 ft Runway displaced threshold 0 ft Runway heading 211

 AIRPORT FREQUENCIES
Type APP Name APP Frequency 122.1 MHZ
Type ATIS Name ATIS Frequency 128.35 MHZ
Type GND Name GND Frequency 121.95 MHZ
Type TWR Name TWR Frequency 122.1 MHZ

 AIRPORT NEAR NAVIGATION AIDS
Type NDB Name Erhac Frequency 421 KHZ
Type VOR Name Malatya Frequency 112000 KHZ
Type TACAN Name Erhac Frequency 113500 KHZ



Copyright © 2007-2018 Istanbul Virtual Airlines.All rights reserved.Developed by Arca Erdik and Aykut Alp Kurt.